sensor_id;sensor_type;location;lat;lon;timestamp;pressure;altitude;pressure_sealevel;temperature;humidity
30081;BME280;16902;50.816;12.828;2023-03-30T00:00:45;97412.00;;;6.98;100.00
30081;BME280;16902;50.816;12.828;2023-03-30T00:05:48;97392.91;;;6.99;100.00
30081;BME280;16902;50.816;12.828;2023-03-30T00:10:59;97394.69;;;6.99;100.00
30081;BME280;16902;50.816;12.828;2023-03-30T00:16:02;97378.53;;;6.97;100.00
30081;BME280;16902;50.816;12.828;2023-03-30T00:21:06;97360.91;;;6.92;100.00
30081;BME280;16902;50.816;12.828;2023-03-30T00:26:10;97339.72;;;6.88;100.00
30081;BME280;16902;50.816;12.828;2023-03-30T00:31:11;97341.16;;;6.91;100.00
30081;BME280;16902;50.816;12.828;2023-03-30T00:36:15;97331.78;;;6.98;100.00
30081;BME280;16902;50.816;12.828;2023-03-30T00:41:17;97326.13;;;6.94;100.00
30081;BME280;16902;50.816;12.828;2023-03-30T00:46:20;97314.16;;;6.85;100.00
30081;BME280;16902;50.816;12.828;2023-03-30T00:51:25;97290.94;;;6.77;100.00
30081;BME280;16902;50.816;12.828;2023-03-30T00:56:29;97286.56;;;6.78;100.00
30081;BME280;16902;50.816;12.828;2023-03-30T01:01:34;97267.00;;;6.75;100.00
30081;BME280;16902;50.816;12.828;2023-03-30T01:06:40;97255.38;;;6.71;100.00
30081;BME280;16902;50.816;12.828;2023-03-30T01:11:44;97249.38;;;6.70;100.00
30081;BME280;16902;50.816;12.828;2023-03-30T01:44:25;97186.81;;;7.06;100.00
30081;BME280;16902;50.816;12.828;2023-03-30T01:49:32;97195.06;;;7.25;100.00
30081;BME280;16902;50.816;12.828;2023-03-30T01:54:42;97189.03;;;7.55;100.00
30081;BME280;16902;50.816;12.828;2023-03-30T01:59:56;97194.81;;;7.80;100.00
30081;BME280;16902;50.816;12.828;2023-03-30T02:05:01;97183.47;;;7.81;100.00
30081;BME280;16902;50.816;12.828;2023-03-30T02:10:08;97170.03;;;7.78;100.00
30081;BME280;16902;50.816;12.828;2023-03-30T02:15:14;97171.84;;;7.92;100.00
30081;BME280;16902;50.816;12.828;2023-03-30T02:20:16;97162.22;;;8.01;100.00
30081;BME280;16902;50.816;12.828;2023-03-30T02:25:19;97157.47;;;7.89;100.00
30081;BME280;16902;50.816;12.828;2023-03-30T02:30:21;97153.59;;;7.70;100.00
30081;BME280;16902;50.816;12.828;2023-03-30T02:35:49;97147.13;;;7.52;100.00
30081;BME280;16902;50.816;12.828;2023-03-30T02:46:35;97126.16;;;7.24;100.00
30081;BME280;16902;50.816;12.828;2023-03-30T03:02:34;97116.22;;;7.35;100.00
30081;BME280;16902;50.816;12.828;2023-03-30T03:07:51;97110.81;;;6.99;100.00
30081;BME280;16902;50.816;12.828;2023-03-30T03:12:54;97108.34;;;6.83;100.00
30081;BME280;16902;50.816;12.828;2023-03-30T03:17:56;97121.16;;;6.99;100.00
30081;BME280;16902;50.816;12.828;2023-03-30T03:22:59;97116.25;;;7.27;100.00
30081;BME280;16902;50.816;12.828;2023-03-30T03:28:04;97118.97;;;7.48;100.00
30081;BME280;16902;50.816;12.828;2023-03-30T03:33:14;97108.53;;;7.42;100.00
30081;BME280;16902;50.816;12.828;2023-03-30T03:38:23;97106.34;;;8.13;100.00
30081;BME280;16902;50.816;12.828;2023-03-30T03:43:26;97121.53;;;8.45;100.00
30081;BME280;16902;50.816;12.828;2023-03-30T03:48:28;97124.34;;;8.65;100.00
30081;BME280;16902;50.816;12.828;2023-03-30T03:53:30;97120.50;;;8.76;100.00
30081;BME280;16902;50.816;12.828;2023-03-30T03:58:36;97118.34;;;8.65;100.00
30081;BME280;16902;50.816;12.828;2023-03-30T04:03:38;97117.97;;;8.46;100.00
30081;BME280;16902;50.816;12.828;2023-03-30T04:08:40;97125.72;;;8.61;100.00
30081;BME280;16902;50.816;12.828;2023-03-30T04:13:53;97133.28;;;8.78;100.00
30081;BME280;16902;50.816;12.828;2023-03-30T04:19:27;97116.09;;;8.98;100.00
30081;BME280;16902;50.816;12.828;2023-03-30T04:24:50;97120.31;;;9.20;100.00
30081;BME280;16902;50.816;12.828;2023-03-30T04:30:12;97121.78;;;9.30;100.00
30081;BME280;16902;50.816;12.828;2023-03-30T04:35:47;97116.56;;;9.51;100.00
30081;BME280;16902;50.816;12.828;2023-03-30T04:41:18;97101.75;;;9.79;100.00
30081;BME280;16902;50.816;12.828;2023-03-30T04:46:32;97103.44;;;9.94;100.00
30081;BME280;16902;50.816;12.828;2023-03-30T04:52:02;97102.28;;;9.96;100.00
30081;BME280;16902;50.816;12.828;2023-03-30T04:57:12;97090.25;;;9.95;100.00
30081;BME280;16902;50.816;12.828;2023-03-30T05:02:44;97095.06;;;9.98;100.00
30081;BME280;16902;50.816;12.828;2023-03-30T05:07:52;97088.72;;;10.08;100.00
30081;BME280;16902;50.816;12.828;2023-03-30T05:13:15;97085.19;;;10.22;100.00
30081;BME280;16902;50.816;12.828;2023-03-30T05:18:27;97083.88;;;10.39;100.00
30081;BME280;16902;50.816;12.828;2023-03-30T05:23:56;97103.72;;;10.47;100.00
30081;BME280;16902;50.816;12.828;2023-03-30T05:29:29;97107.94;;;10.48;100.00
30081;BME280;16902;50.816;12.828;2023-03-30T05:34:50;97114.34;;;10.52;100.00
30081;BME280;16902;50.816;12.828;2023-03-30T05:40:15;97122.22;;;10.65;100.00
30081;BME280;16902;50.816;12.828;2023-03-30T05:45:48;97143.03;;;10.65;100.00
30081;BME280;16902;50.816;12.828;2023-03-30T05:51:25;97150.47;;;10.27;100.00
30081;BME280;16902;50.816;12.828;2023-03-30T05:56:50;97145.09;;;10.00;100.00
30081;BME280;16902;50.816;12.828;2023-03-30T06:02:13;97162.34;;;9.80;100.00
30081;BME280;16902;50.816;12.828;2023-03-30T06:07:15;97147.28;;;9.97;100.00
30081;BME280;16902;50.816;12.828;2023-03-30T06:12:19;97147.78;;;10.14;100.00
30081;BME280;16902;50.816;12.828;2023-03-30T06:17:21;97148.91;;;10.04;100.00
30081;BME280;16902;50.816;12.828;2023-03-30T06:22:23;97132.50;;;9.69;100.00
30081;BME280;16902;50.816;12.828;2023-03-30T06:27:54;97106.97;;;9.51;100.00
30081;BME280;16902;50.816;12.828;2023-03-30T06:32:57;97094.94;;;9.44;100.00
30081;BME280;16902;50.816;12.828;2023-03-30T06:38:21;97087.06;;;9.37;100.00
30081;BME280;16902;50.816;12.828;2023-03-30T06:43:26;97082.88;;;9.64;100.00
30081;BME280;16902;50.816;12.828;2023-03-30T06:48:54;97077.31;;;9.67;100.00
30081;BME280;16902;50.816;12.828;2023-03-30T06:54:14;97075.09;;;9.71;100.00
30081;BME280;16902;50.816;12.828;2023-03-30T06:59:29;97058.66;;;9.98;100.00
30081;BME280;16902;50.816;12.828;2023-03-30T07:05:01;97055.13;;;10.13;100.00
30081;BME280;16902;50.816;12.828;2023-03-30T07:10:10;97030.72;;;10.14;100.00
30081;BME280;16902;50.816;12.828;2023-03-30T07:15:13;97015.88;;;10.55;100.00
30081;BME280;16902;50.816;12.828;2023-03-30T07:20:15;97012.28;;;11.16;100.00
30081;BME280;16902;50.816;12.828;2023-03-30T07:25:40;97018.22;;;11.90;100.00
30081;BME280;16902;50.816;12.828;2023-03-30T07:30:47;97007.25;;;12.13;100.00
30081;BME280;16902;50.816;12.828;2023-03-30T07:35:51;96998.72;;;12.37;100.00
30081;BME280;16902;50.816;12.828;2023-03-30T07:40:57;96998.25;;;12.78;100.00
30081;BME280;16902;50.816;12.828;2023-03-30T07:45:59;97019.78;;;13.05;100.00
30081;BME280;16902;50.816;12.828;2023-03-30T07:51:11;97015.53;;;13.29;100.00
30081;BME280;16902;50.816;12.828;2023-03-30T07:56:39;97018.16;;;13.29;100.00
30081;BME280;16902;50.816;12.828;2023-03-30T08:01:44;97013.47;;;13.13;100.00
30081;BME280;16902;50.816;12.828;2023-03-30T08:07:11;97021.72;;;12.85;100.00
30081;BME280;16902;50.816;12.828;2023-03-30T08:12:13;97022.19;;;13.00;100.00
30081;BME280;16902;50.816;12.828;2023-03-30T08:17:15;97025.66;;;13.19;100.00
30081;BME280;16902;50.816;12.828;2023-03-30T08:22:17;97019.94;;;13.10;100.00
30081;BME280;16902;50.816;12.828;2023-03-30T08:27:18;97034.53;;;12.93;100.00
30081;BME280;16902;50.816;12.828;2023-03-30T08:32:20;97054.31;;;12.44;100.00
30081;BME280;16902;50.816;12.828;2023-03-30T08:37:22;97068.97;;;11.80;100.00
30081;BME280;16902;50.816;12.828;2023-03-30T08:42:38;97073.22;;;11.28;100.00
30081;BME280;16902;50.816;12.828;2023-03-30T08:47:47;97100.06;;;11.16;100.00
30081;BME280;16902;50.816;12.828;2023-03-30T08:52:50;97107.84;;;10.96;100.00
30081;BME280;16902;50.816;12.828;2023-03-30T09:08:29;97114.19;;;10.60;100.00
30081;BME280;16902;50.816;12.828;2023-03-30T09:13:34;97113.72;;;10.43;100.00
30081;BME280;16902;50.816;12.828;2023-03-30T09:18:41;97117.09;;;10.31;100.00
30081;BME280;16902;50.816;12.828;2023-03-30T09:23:44;97133.28;;;10.26;100.00
30081;BME280;16902;50.816;12.828;2023-03-30T09:29:00;97140.81;;;10.21;100.00
30081;BME280;16902;50.816;12.828;2023-03-30T09:34:05;97116.78;;;10.19;100.00
30081;BME280;16902;50.816;12.828;2023-03-30T09:39:22;97120.47;;;10.31;100.00
30081;BME280;16902;50.816;12.828;2023-03-30T09:44:36;97106.47;;;10.32;100.00
30081;BME280;16902;50.816;12.828;2023-03-30T09:49:39;97105.88;;;10.37;100.00
30081;BME280;16902;50.816;12.828;2023-03-30T09:54:41;97100.47;;;10.38;100.00
30081;BME280;16902;50.816;12.828;2023-03-30T09:59:43;97088.47;;;10.37;100.00
30081;BME280;16902;50.816;12.828;2023-03-30T10:09:54;97043.09;;;10.60;100.00
30081;BME280;16902;50.816;12.828;2023-03-30T10:15:02;97054.28;;;10.53;100.00
30081;BME280;16902;50.816;12.828;2023-03-30T10:25:28;97034.50;;;10.66;100.00
30081;BME280;16902;50.816;12.828;2023-03-30T10:30:33;97038.53;;;11.15;100.00
30081;BME280;16902;50.816;12.828;2023-03-30T10:35:36;97050.34;;;11.57;100.00
30081;BME280;16902;50.816;12.828;2023-03-30T10:40:41;97072.59;;;11.86;100.00
30081;BME280;16902;50.816;12.828;2023-03-30T10:45:46;97076.88;;;12.25;100.00
30081;BME280;16902;50.816;12.828;2023-03-30T11:06:30;97062.13;;;12.44;100.00
30081;BME280;16902;50.816;12.828;2023-03-30T11:11:46;97056.75;;;12.32;100.00
30081;BME280;16902;50.816;12.828;2023-03-30T11:17:03;97052.75;;;12.30;100.00
30081;BME280;16902;50.816;12.828;2023-03-30T11:33:28;97046.84;;;13.61;100.00
30081;BME280;16902;50.816;12.828;2023-03-30T11:38:45;97010.25;;;13.98;100.00
30081;BME280;16902;50.816;12.828;2023-03-30T11:43:50;97012.03;;;14.15;100.00
30081;BME280;16902;50.816;12.828;2023-03-30T11:48:59;96996.50;;;14.32;100.00
30081;BME280;16902;50.816;12.828;2023-03-30T11:54:23;96978.59;;;14.48;100.00
30081;BME280;16902;50.816;12.828;2023-03-30T12:05:26;96986.31;;;15.78;100.00
30081;BME280;16902;50.816;12.828;2023-03-30T12:15:43;96972.88;;;18.05;100.00
30081;BME280;16902;50.816;12.828;2023-03-30T12:31:15;96953.13;;;18.08;100.00
30081;BME280;16902;50.816;12.828;2023-03-30T12:36:34;96951.47;;;17.36;100.00
30081;BME280;16902;50.816;12.828;2023-03-30T12:41:46;96945.94;;;18.79;100.00
30081;BME280;16902;50.816;12.828;2023-03-30T12:52:15;96943.19;;;15.86;100.00
30081;BME280;16902;50.816;12.828;2023-03-30T13:08:33;96931.84;;;15.22;100.00
30081;BME280;16902;50.816;12.828;2023-03-30T13:13:55;96955.00;;;16.91;100.00
30081;BME280;16902;50.816;12.828;2023-03-30T13:19:13;96948.81;;;16.97;100.00
30081;BME280;16902;50.816;12.828;2023-03-30T13:24:31;96939.94;;;17.81;100.00
30081;BME280;16902;50.816;12.828;2023-03-30T13:29:36;96953.97;;;16.75;100.00
30081;BME280;16902;50.816;12.828;2023-03-30T13:34:58;96934.22;;;17.67;100.00
30081;BME280;16902;50.816;12.828;2023-03-30T13:50:53;96920.56;;;15.33;100.00
30081;BME280;16902;50.816;12.828;2023-03-30T13:55:56;96925.22;;;15.31;100.00
30081;BME280;16902;50.816;12.828;2023-03-30T14:01:06;96923.97;;;15.22;100.00
30081;BME280;16902;50.816;12.828;2023-03-30T14:11:19;96913.19;;;16.10;100.00
30081;BME280;16902;50.816;12.828;2023-03-30T14:16:27;96900.31;;;15.57;100.00
30081;BME280;16902;50.816;12.828;2023-03-30T14:21:30;96894.25;;;15.04;100.00
30081;BME280;16902;50.816;12.828;2023-03-30T14:26:38;96904.72;;;15.16;100.00
30081;BME280;16902;50.816;12.828;2023-03-30T14:31:42;96895.50;;;15.13;100.00
30081;BME280;16902;50.816;12.828;2023-03-30T14:37:05;96892.09;;;14.66;100.00
30081;BME280;16902;50.816;12.828;2023-03-30T14:42:14;96894.88;;;14.41;100.00
30081;BME280;16902;50.816;12.828;2023-03-30T14:47:22;96875.06;;;15.27;100.00
30081;BME280;16902;50.816;12.828;2023-03-30T14:52:40;96886.03;;;15.12;100.00
30081;BME280;16902;50.816;12.828;2023-03-30T14:57:42;96884.31;;;14.59;100.00
30081;BME280;16902;50.816;12.828;2023-03-30T15:02:54;96891.97;;;14.31;100.00
30081;BME280;16902;50.816;12.828;2023-03-30T15:07:57;96907.84;;;13.39;100.00
30081;BME280;16902;50.816;12.828;2023-03-30T15:13:00;96996.63;;;11.43;100.00
30081;BME280;16902;50.816;12.828;2023-03-30T15:18:03;97002.22;;;8.67;100.00
30081;BME280;16902;50.816;12.828;2023-03-30T15:23:05;97020.00;;;8.48;100.00
30081;BME280;16902;50.816;12.828;2023-03-30T15:28:17;97016.66;;;8.55;100.00
30081;BME280;16902;50.816;12.828;2023-03-30T15:33:33;97038.34;;;8.68;100.00
30081;BME280;16902;50.816;12.828;2023-03-30T15:44:31;97029.28;;;8.58;100.00
30081;BME280;16902;50.816;12.828;2023-03-30T15:49:47;97029.38;;;8.49;100.00
30081;BME280;16902;50.816;12.828;2023-03-30T15:54:53;97014.56;;;8.43;100.00
30081;BME280;16902;50.816;12.828;2023-03-30T15:59:59;96995.16;;;8.39;100.00
30081;BME280;16902;50.816;12.828;2023-03-30T16:05:07;96998.75;;;8.38;100.00
30081;BME280;16902;50.816;12.828;2023-03-30T16:10:19;96991.91;;;8.52;100.00
30081;BME280;16902;50.816;12.828;2023-03-30T16:15:24;96992.97;;;8.58;100.00
30081;BME280;16902;50.816;12.828;2023-03-30T16:20:28;97002.97;;;8.61;100.00
30081;BME280;16902;50.816;12.828;2023-03-30T16:25:31;97000.06;;;8.70;100.00
30081;BME280;16902;50.816;12.828;2023-03-30T16:30:46;97006.72;;;8.80;100.00
30081;BME280;16902;50.816;12.828;2023-03-30T16:35:49;97014.13;;;8.83;100.00
30081;BME280;16902;50.816;12.828;2023-03-30T16:40:54;97031.78;;;8.94;100.00
30081;BME280;16902;50.816;12.828;2023-03-30T16:45:56;97027.59;;;9.14;100.00
30081;BME280;16902;50.816;12.828;2023-03-30T16:50:58;97028.06;;;9.24;100.00
30081;BME280;16902;50.816;12.828;2023-03-30T16:56:01;97030.88;;;9.30;100.00
30081;BME280;16902;50.816;12.828;2023-03-30T17:01:03;97039.69;;;9.29;100.00
30081;BME280;16902;50.816;12.828;2023-03-30T17:06:05;97040.97;;;9.18;100.00
30081;BME280;16902;50.816;12.828;2023-03-30T17:11:09;97031.72;;;9.09;100.00
30081;BME280;16902;50.816;12.828;2023-03-30T17:16:14;97023.88;;;9.02;100.00
30081;BME280;16902;50.816;12.828;2023-03-30T17:21:16;97027.66;;;8.99;100.00
30081;BME280;16902;50.816;12.828;2023-03-30T17:26:18;97038.06;;;8.99;100.00
30081;BME280;16902;50.816;12.828;2023-03-30T17:31:21;97035.38;;;8.93;100.00
30081;BME280;16902;50.816;12.828;2023-03-30T17:36:24;97045.31;;;8.89;100.00
30081;BME280;16902;50.816;12.828;2023-03-30T17:41:27;97033.06;;;8.77;100.00
30081;BME280;16902;50.816;12.828;2023-03-30T17:46:29;97040.09;;;8.61;100.00
30081;BME280;16902;50.816;12.828;2023-03-30T17:51:33;97048.28;;;8.43;100.00
30081;BME280;16902;50.816;12.828;2023-03-30T17:56:34;97058.31;;;8.32;100.00
30081;BME280;16902;50.816;12.828;2023-03-30T18:01:37;97058.59;;;8.22;100.00
30081;BME280;16902;50.816;12.828;2023-03-30T18:06:39;97065.94;;;8.18;100.00
30081;BME280;16902;50.816;12.828;2023-03-30T18:11:42;97066.03;;;8.10;100.00
30081;BME280;16902;50.816;12.828;2023-03-30T18:16:44;97068.53;;;8.04;100.00
30081;BME280;16902;50.816;12.828;2023-03-30T18:21:46;97071.22;;;7.95;100.00
30081;BME280;16902;50.816;12.828;2023-03-30T18:26:48;97069.81;;;7.93;100.00
30081;BME280;16902;50.816;12.828;2023-03-30T18:31:50;97075.25;;;7.83;100.00
30081;BME280;16902;50.816;12.828;2023-03-30T18:36:52;97076.41;;;7.81;100.00
30081;BME280;16902;50.816;12.828;2023-03-30T18:41:53;97076.50;;;7.72;100.00
30081;BME280;16902;50.816;12.828;2023-03-30T18:46:55;97079.63;;;7.68;100.00
30081;BME280;16902;50.816;12.828;2023-03-30T18:51:57;97085.97;;;7.65;100.00
30081;BME280;16902;50.816;12.828;2023-03-30T18:56:59;97087.31;;;7.61;100.00
30081;BME280;16902;50.816;12.828;2023-03-30T19:02:01;97083.38;;;7.65;100.00
30081;BME280;16902;50.816;12.828;2023-03-30T19:07:03;97086.50;;;7.61;100.00
30081;BME280;16902;50.816;12.828;2023-03-30T19:12:07;97088.03;;;7.55;100.00
30081;BME280;16902;50.816;12.828;2023-03-30T19:17:10;97083.13;;;7.60;100.00
30081;BME280;16902;50.816;12.828;2023-03-30T19:22:12;97096.22;;;7.59;100.00
30081;BME280;16902;50.816;12.828;2023-03-30T19:27:14;97095.66;;;7.48;100.00
30081;BME280;16902;50.816;12.828;2023-03-30T19:32:16;97097.31;;;7.50;100.00
30081;BME280;16902;50.816;12.828;2023-03-30T19:37:20;97092.16;;;7.64;100.00
30081;BME280;16902;50.816;12.828;2023-03-30T19:42:22;97101.59;;;7.72;100.00
30081;BME280;16902;50.816;12.828;2023-03-30T19:47:24;97096.69;;;7.77;100.00
30081;BME280;16902;50.816;12.828;2023-03-30T19:52:29;97100.63;;;7.73;100.00
30081;BME280;16902;50.816;12.828;2023-03-30T19:57:31;97102.31;;;7.66;100.00
30081;BME280;16902;50.816;12.828;2023-03-30T20:02:33;97111.59;;;7.60;100.00
30081;BME280;16902;50.816;12.828;2023-03-30T20:07:36;97110.44;;;7.63;100.00
30081;BME280;16902;50.816;12.828;2023-03-30T20:12:38;97117.31;;;7.56;100.00
30081;BME280;16902;50.816;12.828;2023-03-30T20:17:40;97118.84;;;7.65;100.00
30081;BME280;16902;50.816;12.828;2023-03-30T20:22:43;97116.28;;;7.80;100.00
30081;BME280;16902;50.816;12.828;2023-03-30T20:27:45;97117.06;;;7.80;100.00
30081;BME280;16902;50.816;12.828;2023-03-30T20:32:47;97127.09;;;7.83;100.00
30081;BME280;16902;50.816;12.828;2023-03-30T20:38:07;97131.81;;;7.80;100.00
30081;BME280;16902;50.816;12.828;2023-03-30T20:43:09;97149.41;;;7.69;100.00
30081;BME280;16902;50.816;12.828;2023-03-30T20:48:11;97139.47;;;7.73;100.00
30081;BME280;16902;50.816;12.828;2023-03-30T20:53:34;97151.75;;;7.94;100.00
30081;BME280;16902;50.816;12.828;2023-03-30T20:58:37;97144.41;;;7.97;100.00
30081;BME280;16902;50.816;12.828;2023-03-30T21:03:40;97137.91;;;8.02;100.00
30081;BME280;16902;50.816;12.828;2023-03-30T21:08:44;97142.00;;;7.96;100.00
30081;BME280;16902;50.816;12.828;2023-03-30T21:13:46;97131.03;;;7.94;100.00
30081;BME280;16902;50.816;12.828;2023-03-30T21:18:48;97126.19;;;7.91;100.00
30081;BME280;16902;50.816;12.828;2023-03-30T21:23:51;97129.50;;;7.99;100.00
30081;BME280;16902;50.816;12.828;2023-03-30T21:28:52;97125.66;;;8.10;100.00
30081;BME280;16902;50.816;12.828;2023-03-30T21:33:54;97118.69;;;8.11;100.00
30081;BME280;16902;50.816;12.828;2023-03-30T21:38:56;97104.72;;;8.12;100.00
30081;BME280;16902;50.816;12.828;2023-03-30T21:44:00;97100.19;;;8.14;100.00
30081;BME280;16902;50.816;12.828;2023-03-30T21:49:01;97097.22;;;8.17;100.00
30081;BME280;16902;50.816;12.828;2023-03-30T21:54:03;97106.63;;;8.18;100.00
30081;BME280;16902;50.816;12.828;2023-03-30T21:59:06;97101.25;;;8.19;100.00
30081;BME280;16902;50.816;12.828;2023-03-30T22:04:08;97100.44;;;8.19;100.00
30081;BME280;16902;50.816;12.828;2023-03-30T22:09:12;97091.88;;;8.18;100.00
30081;BME280;16902;50.816;12.828;2023-03-30T22:14:14;97095.97;;;8.13;100.00
30081;BME280;16902;50.816;12.828;2023-03-30T22:19:16;97088.84;;;8.00;100.00
30081;BME280;16902;50.816;12.828;2023-03-30T22:24:19;97087.13;;;8.07;100.00
30081;BME280;16902;50.816;12.828;2023-03-30T22:29:21;97078.00;;;8.11;100.00
30081;BME280;16902;50.816;12.828;2023-03-30T22:34:23;97070.59;;;8.08;100.00
30081;BME280;16902;50.816;12.828;2023-03-30T22:39:26;97070.41;;;8.10;100.00
30081;BME280;16902;50.816;12.828;2023-03-30T22:44:28;97070.94;;;8.20;100.00
30081;BME280;16902;50.816;12.828;2023-03-30T22:49:30;97071.56;;;8.22;100.00
30081;BME280;16902;50.816;12.828;2023-03-30T22:54:32;97062.78;;;8.23;100.00
30081;BME280;16902;50.816;12.828;2023-03-30T22:59:34;97064.75;;;8.21;100.00
30081;BME280;16902;50.816;12.828;2023-03-30T23:04:36;97063.94;;;8.20;100.00
30081;BME280;16902;50.816;12.828;2023-03-30T23:09:40;97053.88;;;8.11;100.00
30081;BME280;16902;50.816;12.828;2023-03-30T23:14:48;97056.91;;;8.14;100.00
30081;BME280;16902;50.816;12.828;2023-03-30T23:19:49;97056.16;;;8.20;100.00
30081;BME280;16902;50.816;12.828;2023-03-30T23:24:56;97047.50;;;8.28;100.00
30081;BME280;16902;50.816;12.828;2023-03-30T23:29:58;97049.34;;;8.34;100.00
30081;BME280;16902;50.816;12.828;2023-03-30T23:35:00;97038.47;;;8.39;100.00
30081;BME280;16902;50.816;12.828;2023-03-30T23:40:02;97021.75;;;8.41;100.00
30081;BME280;16902;50.816;12.828;2023-03-30T23:45:08;97018.66;;;8.53;100.00
30081;BME280;16902;50.816;12.828;2023-03-30T23:50:10;97013.16;;;8.62;100.00
30081;BME280;16902;50.816;12.828;2023-03-30T23:55:12;97009.84;;;8.75;100.00
